YVR weather

Vancouver International Airport
Vancouver, British Columbia, Canada

Public forecast

Using degrees Celsius for public forecast. Weather courtesy of forecast.io.

METAR (pilot weather report)

Retrieved 2018/10/19 09:00 UTC (31 minutes ago):

CYVR 190900Z 12002KT 15SM MIFG FEW250 07/07 A3024 RMK CS2 SLP242

TAF (pilot weather forecast)

Retrieved 2018/10/19 09:42 UTC (0 seconds ago):

TAF CYVR 190838Z 1909/2012 10003KT P6SM SCT240 FM191200 09005KT P6SM BKN250 PROB30 1912/1918 1/2SM FG BKN002 FM191900 25007KT P6SM SCT250 PROB30 2009/2012 1/2SM FG BKN002 RMK NXT FCST BY 191200Z